Time;durP1;ratioP1;P1;durP2;ratioP2;P2;SDS_P1;SDS_P2;PMS_P1;PMS_P2;Temp;Humidity;BMP_temperature;BMP_pressure;BME280_temperature;BME280_humidity;BME280_pressure;Samples;Min_cycle;Max_cycle;Signal;HPM_P1;HPM_P2
2023/05/08 00:00:05;;;;;;;16.93;15.17;;;10.70;75.20;;;;;;5000233;28;20100;-93
2023/05/08 00:02:34;;;;;;;17.83;15.07;;;10.60;75.20;;;;;;5000441;28;20115;-92
2023/05/08 00:05:00;;;;;;;19.80;15.97;;;10.60;75.20;;;;;;5002872;28;20065;-92
2023/05/08 00:07:26;;;;;;;18.93;16.27;;;10.60;75.30;;;;;;5013073;28;20041;-92
2023/05/08 00:09:52;;;;;;;19.97;16.67;;;10.50;75.30;;;;;;5002932;28;20056;-94
2023/05/08 00:12:17;;;;;;;19.13;16.27;;;10.50;75.40;;;;;;4981177;28;20068;-92
2023/05/08 00:14:46;;;;;;;20.27;16.57;;;10.50;75.40;;;;;;4992720;28;20049;-92
2023/05/08 00:17:12;;;;;;;17.57;15.73;;;10.40;75.40;;;;;;5000201;28;20063;-93
2023/05/08 00:19:38;;;;;;;18.70;16.27;;;10.40;75.50;;;;;;5029509;28;20045;-93
2023/05/08 00:22:04;;;;;;;22.60;16.02;;;10.40;75.50;;;;;;5016720;28;20045;-92
2023/05/08 00:24:29;;;;;;;18.67;16.10;;;10.30;75.50;;;;;;4982745;28;20922;-92
2023/05/08 00:26:55;;;;;;;19.85;17.13;;;10.30;75.50;;;;;;4984621;28;20038;-93
2023/05/08 00:29:24;;;;;;;19.05;16.42;;;10.30;75.70;;;;;;5016141;28;20045;-93
2023/05/08 00:31:50;;;;;;;20.33;17.20;;;10.20;75.70;;;;;;5017932;28;20041;-92
2023/05/08 00:34:18;;;;;;;18.57;16.57;;;10.20;75.70;;;;;;4999949;28;20037;-93
2023/05/08 00:36:47;;;;;;;19.83;17.23;;;10.10;75.70;;;;;;4981360;28;20037;-93
2023/05/08 00:39:13;;;;;;;19.37;17.27;;;10.10;75.90;;;;;;5016749;28;20055;-92
2023/05/08 00:41:39;;;;;;;21.33;18.10;;;10.10;75.90;;;;;;4984415;28;20049;-92
2023/05/08 00:44:04;;;;;;;21.43;17.47;;;10.10;76.00;;;;;;4999393;28;20073;-93
2023/05/08 00:46:30;;;;;;;21.53;17.60;;;10.00;76.00;;;;;;4998357;28;20041;-93
2023/05/08 00:48:57;;;;;;;22.27;18.23;;;10.00;76.00;;;;;;5014588;28;20084;-92
2023/05/08 00:51:23;;;;;;;20.17;18.07;;;10.00;76.00;;;;;;5017134;28;20053;-92
2023/05/08 00:53:49;;;;;;;20.97;18.23;;;10.00;76.10;;;;;;4999627;28;20037;-93
2023/05/08 00:56:17;;;;;;;20.83;18.43;;;10.00;76.00;;;;;;5015637;28;20125;-94
2023/05/08 00:58:44;;;;;;;20.20;17.57;;;10.00;76.00;;;;;;4996415;28;20486;-92
2023/05/08 01:01:10;;;;;;;21.57;18.37;;;10.00;76.00;;;;;;5001126;28;20111;-93
2023/05/08 01:03:37;;;;;;;23.60;18.83;;;10.00;76.00;;;;;;5015274;28;20120;-92
2023/05/08 01:06:05;;;;;;;22.83;19.03;;;9.90;76.00;;;;;;4984143;28;20054;-92
2023/05/08 01:08:31;;;;;;;21.10;18.80;;;9.90;76.10;;;;;;4981803;28;20046;-93
2023/05/08 01:11:33;;;;;;;22.23;19.37;;;9.80;76.10;;;;;;5017227;28;20046;-93
2023/05/08 01:14:20;;;;;;;22.50;19.03;;;9.80;76.30;;;;;;5014955;28;20059;-93
2023/05/08 01:17:04;;;;;;;22.40;19.40;;;9.80;76.20;;;;;;4995949;28;20528;-93
2023/05/08 01:19:55;;;;;;;22.37;19.27;;;9.80;76.10;;;;;;4997637;28;20116;-94
2023/05/08 01:22:24;;;;;;;;;;;9.80;76.30;;;;;;4999620;28;20053;-91
2023/05/08 01:25:12;;;;;;;22.97;20.27;;;9.70;76.50;;;;;;5016917;28;20366;-92
2023/05/08 01:28:07;;;;;;;23.47;20.03;;;9.60;76.30;;;;;;5009934;28;20110;-92
2023/05/08 01:30:43;;;;;;;22.50;19.70;;;9.60;76.40;;;;;;5016688;28;20662;-92
2023/05/08 01:33:33;;;;;;;27.60;20.93;;;9.60;76.30;;;;;;5015410;28;20079;-91
2023/05/08 01:36:10;;;;;;;24.80;20.23;;;9.60;76.40;;;;;;4982663;28;20099;-92
2023/05/08 01:38:49;;;;;;;25.23;21.07;;;9.60;76.40;;;;;;4995686;28;20045;-92
2023/05/08 01:41:26;;;;;;;22.93;20.30;;;9.60;76.30;;;;;;5000072;28;20057;-93
2023/05/08 01:44:15;;;;;;;22.53;20.10;;;9.60;76.40;;;;;;4998967;28;20045;-92
2023/05/08 01:46:51;;;;;;;24.63;20.27;;;9.50;76.40;;;;;;4996143;28;20033;-93
2023/05/08 01:49:20;;;;;;;23.40;20.50;;;9.50;76.50;;;;;;4997957;28;20099;-92
2023/05/08 01:52:01;;;;;;;24.67;20.90;;;9.50;76.50;;;;;;5015980;28;20576;-92
2023/05/08 01:54:33;;;;;;;24.00;20.85;;;9.50;76.60;;;;;;5024913;28;20045;-93
2023/05/08 01:57:00;;;;;;;25.30;21.02;;;9.40;76.60;;;;;;4994697;28;20049;-94
2023/05/08 01:59:27;;;;;;;23.97;20.10;;;9.40;76.60;;;;;;4998207;28;20049;-92
2023/05/08 02:01:56;;;;;;;26.70;20.97;;;9.40;76.60;;;;;;5032801;28;20049;-92
2023/05/08 02:04:24;;;;;;;26.53;20.90;;;9.40;76.70;;;;;;5014322;28;20068;-92
2023/05/08 02:06:51;;;;;;;26.17;20.77;;;9.30;76.70;;;;;;4994762;28;20054;-92
2023/05/08 02:09:19;;;;;;;26.47;20.93;;;9.30;76.80;;;;;;4997570;28;20076;-92
2023/05/08 02:11:46;;;;;;;24.27;21.53;;;9.30;76.80;;;;;;5015998;28;20486;-92
2023/05/08 02:14:13;;;;;;;23.00;20.53;;;9.30;76.80;;;;;;4998336;28;20049;-92
2023/05/08 02:16:42;;;;;;;24.63;20.90;;;9.30;76.80;;;;;;5012456;28;20049;-92
2023/05/08 02:19:12;;;;;;;23.87;21.33;;;9.30;76.90;;;;;;5013211;28;20049;-92
2023/05/08 02:21:39;;;;;;;20.43;15.87;;;9.20;76.90;;;;;;4999520;28;20077;-91
2023/05/08 02:24:05;;;;;;;25.37;21.80;;;9.20;76.90;;;;;;4997569;28;20064;-92
2023/05/08 02:26:33;;;;;;;23.83;21.10;;;9.20;76.90;;;;;;4996120;28;20548;-93
2023/05/08 02:29:01;;;;;;;27.03;21.70;;;9.20;76.90;;;;;;4996257;28;20041;-92
2023/05/08 02:31:28;;;;;;;25.83;20.83;;;9.20;77.00;;;;;;4999158;28;20092;-92
2023/05/08 02:33:56;;;;;;;25.40;20.70;;;9.20;77.00;;;;;;4997744;28;20049;-91
2023/05/08 02:36:23;;;;;;;23.23;20.73;;;9.20;76.90;;;;;;4997241;28;20042;-93
2023/05/08 02:38:51;;;;;;;22.93;20.43;;;9.20;76.90;;;;;;4996378;28;20046;-91
2023/05/08 02:41:21;;;;;;;25.57;20.23;;;9.20;76.90;;;;;;5015420;28;20053;-91
2023/05/08 02:43:48;;;;;;;25.07;20.87;;;9.20;76.90;;;;;;4997597;28;20099;-92
2023/05/08 02:46:23;;;;;;;24.00;20.63;;;9.20;76.80;;;;;;4997535;28;20049;-94
2023/05/08 02:48:52;;;;;;;24.30;20.40;;;9.20;76.80;;;;;;4994979;28;20115;-92
2023/05/08 02:51:24;;;;;;;23.73;21.00;;;9.20;76.80;;;;;;4999052;28;20081;-92
2023/05/08 02:54:11;;;;;;;27.03;21.07;;;9.20;76.80;;;;;;4997312;28;20080;-92
2023/05/08 02:56:46;;;;;;;25.13;21.17;;;9.10;76.80;;;;;;5007594;28;20044;-92
2023/05/08 02:59:29;;;;;;;24.77;21.07;;;9.00;76.80;;;;;;4996554;28;20045;-92
2023/05/08 03:02:21;;;;;;;25.60;20.97;;;9.00;76.80;;;;;;4988891;28;20125;-92
2023/05/08 03:04:54;;;;;;;24.00;20.43;;;9.00;76.90;;;;;;4986937;28;20049;-92
2023/05/08 03:07:24;;;;;;;24.77;21.53;;;8.90;76.80;;;;;;4992070;28;20053;-91
2023/05/08 03:10:01;;;;;;;25.97;20.90;;;8.90;76.90;;;;;;5014598;28;20514;-92
2023/05/08 03:12:32;;;;;;;28.37;21.47;;;8.90;77.00;;;;;;4996671;28;20056;-91
2023/05/08 03:15:22;;;;;;;24.83;21.40;;;8.80;77.00;;;;;;4998474;28;20072;-92
2023/05/08 03:17:53;;;;;;;25.17;20.30;;;8.80;77.00;;;;;;5001849;28;20052;-91
2023/05/08 03:20:21;;;;;;;23.08;16.70;;;8.70;77.00;;;;;;4998610;28;20088;-92
2023/05/08 03:22:49;;;;;;;27.40;22.27;;;8.70;77.00;;;;;;4996894;28;20498;-92
2023/05/08 03:25:18;;;;;;;23.57;20.80;;;8.60;77.00;;;;;;4999027;28;20060;-92
2023/05/08 03:27:47;;;;;;;23.37;20.40;;;8.60;77.00;;;;;;4995985;28;20037;-92
2023/05/08 03:30:17;;;;;;;25.30;21.10;;;8.60;77.10;;;;;;5015001;28;20084;-92
2023/05/08 03:32:45;;;;;;;24.20;20.70;;;8.60;77.10;;;;;;4994303;28;20421;-91
2023/05/08 03:35:14;;;;;;;26.40;21.67;;;8.60;77.20;;;;;;4993337;28;20076;-92
2023/05/08 03:37:41;;;;;;;27.40;21.47;;;8.60;77.20;;;;;;5010010;28;20060;-92
2023/05/08 03:40:08;;;;;;;27.93;21.47;;;8.50;77.30;;;;;;4980668;28;20056;-91
2023/05/08 03:42:38;;;;;;;25.60;21.07;;;8.50;77.40;;;;;;4997523;28;20041;-92
2023/05/08 03:45:08;;;;;;;25.67;20.73;;;8.50;77.30;;;;;;4998468;28;20093;-93
2023/05/08 03:47:35;;;;;;;25.93;21.20;;;8.50;77.40;;;;;;4991650;28;20132;-92
2023/05/08 03:50:01;;;;;;;27.53;22.47;;;8.50;77.50;;;;;;5031064;28;20557;-92
2023/05/08 03:52:29;;;;;;;28.00;22.20;;;8.40;77.50;;;;;;5013168;28;20402;-92
2023/05/08 03:54:55;;;;;;;27.13;21.53;;;8.40;77.40;;;;;;5014329;28;20056;-92
2023/05/08 03:57:26;;;;;;;32.00;23.07;;;8.40;77.40;;;;;;4975576;28;20053;-90
2023/05/08 04:00:01;;;;;;;;;;;8.40;77.40;;;;;;4983389;28;20744;-92
2023/05/08 04:02:40;;;;;;;28.13;22.23;;;8.40;77.80;;;;;;4996532;28;20000;-89
2023/05/08 04:05:22;;;;;;;26.83;21.60;;;8.40;77.70;;;;;;4994620;28;20099;-91
2023/05/08 04:08:16;;;;;;;27.43;21.57;;;8.40;77.70;;;;;;4988375;28;20057;-91
2023/05/08 04:10:56;;;;;;;24.60;21.57;;;8.40;77.80;;;;;;4956593;28;20083;-92
2023/05/08 04:13:27;;;;;;;28.87;22.60;;;8.40;77.70;;;;;;4977718;28;20050;-91
2023/05/08 04:16:04;;;;;;;27.33;22.60;;;8.40;77.70;;;;;;4995070;28;20108;-91
2023/05/08 04:18:33;;;;;;;27.27;22.13;;;8.40;77.70;;;;;;4972249;28;20532;-92
2023/05/08 04:21:02;;;;;;;26.53;22.23;;;8.40;77.80;;;;;;4978154;28;20050;-91
2023/05/08 04:23:32;;;;;;;26.40;20.63;;;8.50;77.80;;;;;;4981094;28;20733;-91
2023/05/08 04:25:59;;;;;;;24.00;20.70;;;8.50;77.80;;;;;;4997568;28;20045;-91
2023/05/08 04:28:25;;;;;;;24.70;20.73;;;8.50;77.80;;;;;;4972744;28;20368;-91
2023/05/08 04:30:52;;;;;;;25.40;21.23;;;8.60;77.80;;;;;;4998254;28;20049;-92
2023/05/08 04:33:18;;;;;;;25.13;21.50;;;8.60;77.80;;;;;;4965721;28;20042;-92
2023/05/08 04:35:45;;;;;;;26.87;21.23;;;8.60;77.80;;;;;;4981984;28;20123;-92
2023/05/08 04:38:10;;;;;;;24.27;20.00;;;8.60;77.70;;;;;;4976441;28;20056;-92
2023/05/08 04:40:36;;;;;;;25.50;20.70;;;8.80;77.70;;;;;;4993427;28;20050;-92
2023/05/08 04:43:05;;;;;;;26.33;20.70;;;8.80;77.60;;;;;;4982536;28;20046;-93
2023/05/08 04:45:31;;;;;;;22.73;19.93;;;8.80;77.60;;;;;;4974806;28;20483;-92
2023/05/08 04:47:57;;;;;;;24.07;20.27;;;8.90;77.70;;;;;;4995192;28;20057;-91
2023/05/08 04:50:23;;;;;;;24.20;19.80;;;8.90;77.60;;;;;;4982050;28;20131;-92
2023/05/08 04:52:51;;;;;;;24.37;20.47;;;9.00;77.50;;;;;;4979649;28;20045;-91
2023/05/08 04:55:17;;;;;;;23.27;19.00;;;9.00;77.40;;;;;;4972226;28;20058;-92
2023/05/08 04:57:43;;;;;;;23.70;18.57;;;9.00;77.40;;;;;;4974948;28;20049;-93
2023/05/08 05:00:10;;;;;;;24.13;19.57;;;9.20;77.40;;;;;;4997898;28;20056;-93
2023/05/08 05:02:38;;;;;;;23.20;18.83;;;9.20;77.30;;;;;;4980187;28;20129;-91
2023/05/08 05:05:04;;;;;;;21.63;18.23;;;9.20;77.20;;;;;;4998422;28;20045;-92
2023/05/08 05:07:30;;;;;;;22.80;18.00;;;9.30;77.20;;;;;;5010399;28;20053;-92
2023/05/08 05:09:56;;;;;;;22.97;18.47;;;9.40;77.20;;;;;;5017653;28;20049;-91
2023/05/08 05:12:24;;;;;;;20.97;18.23;;;9.50;77.10;;;;;;4983169;28;20049;-91
2023/05/08 05:14:50;;;;;;;23.10;17.07;;;9.60;77.00;;;;;;5016723;28;20053;-92
2023/05/08 05:17:16;;;;;;;20.80;17.43;;;9.70;77.00;;;;;;4960219;28;20509;-92
2023/05/08 05:19:42;;;;;;;18.90;16.90;;;9.80;76.90;;;;;;4983369;28;20577;-92
2023/05/08 05:22:08;;;;;;;18.60;16.47;;;10.00;76.90;;;;;;4998435;28;20111;-91
2023/05/08 05:24:38;;;;;;;18.70;16.50;;;10.10;76.60;;;;;;4985000;28;20482;-93
2023/05/08 05:27:04;;;;;;;17.45;15.57;;;10.20;76.30;;;;;;5026951;28;20266;-93
2023/05/08 05:29:33;;;;;;;18.07;16.17;;;10.40;75.90;;;;;;4999371;28;20045;-92
2023/05/08 05:31:59;;;;;;;18.57;15.63;;;10.50;76.10;;;;;;5016617;28;20045;-92
2023/05/08 05:34:24;;;;;;;16.93;15.23;;;10.70;75.50;;;;;;4962624;28;20056;-93
2023/05/08 05:36:50;;;;;;;18.23;14.40;;;10.80;75.00;;;;;;4985906;28;20687;-92
2023/05/08 05:39:19;;;;;;;17.10;14.50;;;11.00;74.70;;;;;;4999721;28;20053;-94
2023/05/08 05:41:47;;;;;;;19.73;15.27;;;11.10;74.20;;;;;;4984543;28;20115;-93
2023/05/08 05:44:13;;;;;;;16.07;14.47;;;11.10;74.40;;;;;;4982163;28;20108;-94
2023/05/08 05:46:42;;;;;;;17.03;14.13;;;11.30;74.20;;;;;;4996766;28;20103;-93
2023/05/08 05:49:11;;;;;;;16.23;14.50;;;11.30;74.00;;;;;;4979875;28;20049;-93
2023/05/08 05:51:40;;;;;;;17.00;14.40;;;11.40;74.10;;;;;;5000073;28;20064;-93
2023/05/08 05:54:16;;;;;;;16.27;14.53;;;11.40;73.90;;;;;;4998122;28;20080;-94
2023/05/08 05:56:42;;;;;;;16.00;14.40;;;11.50;74.10;;;;;;5012160;28;20102;-92
2023/05/08 05:59:08;;;;;;;15.27;13.70;;;11.50;74.00;;;;;;4997226;28;20084;-90
2023/05/08 06:01:45;;;;;;;16.50;14.13;;;11.50;73.40;;;;;;4983796;28;20064;-94
2023/05/08 06:04:13;;;;;;;16.63;13.83;;;11.70;73.50;;;;;;4997604;28;20053;-93
2023/05/08 06:06:54;;;;;;;16.75;14.55;;;11.70;73.90;;;;;;4995991;28;20084;-95
2023/05/08 06:09:20;;;;;;;15.85;14.20;;;11.70;73.50;;;;;;5014007;28;20041;-95
2023/05/08 06:11:48;;;;;;;15.88;12.95;;;11.90;73.60;;;;;;4962958;28;20046;-95
2023/05/08 06:14:23;;;;;;;15.25;13.65;;;11.80;73.20;;;;;;5000515;28;20122;-96
2023/05/08 06:16:56;;;;;;;16.67;14.10;;;11.90;72.90;;;;;;5014194;28;20049;-96
2023/05/08 06:19:25;;;;;;;18.90;13.65;;;11.70;73.00;;;;;;5013627;28;20049;-93
2023/05/08 06:21:53;;;;;;;15.25;13.48;;;11.70;73.00;;;;;;4995990;28;20050;-93
2023/05/08 06:24:19;;;;;;;16.45;14.38;;;11.60;73.10;;;;;;4987694;28;20041;-94
2023/05/08 06:26:45;;;;;;;16.13;14.38;;;11.60;73.20;;;;;;5010831;28;20041;-94
2023/05/08 06:29:12;;;;;;;15.68;13.18;;;11.50;73.20;;;;;;5002410;28;20045;-93
2023/05/08 06:31:37;;;;;;;16.58;13.65;;;11.50;73.30;;;;;;4998889;28;20045;-93
2023/05/08 06:34:03;;;;;;;19.20;15.25;;;11.50;73.50;;;;;;5013519;28;20052;-92
2023/05/08 06:36:29;;;;;;;16.00;14.43;;;11.50;73.60;;;;;;4996742;28;20061;-94
2023/05/08 06:38:55;;;;;;;15.88;14.30;;;11.50;73.70;;;;;;5012991;28;20053;-95
2023/05/08 06:41:21;;;;;;;18.70;15.45;;;11.50;73.50;;;;;;5014596;28;20099;-95
2023/05/08 06:43:47;;;;;;;16.02;14.23;;;11.50;73.40;;;;;;4997077;28;20037;-93
2023/05/08 06:46:13;;;;;;;16.42;14.65;;;11.40;73.40;;;;;;5014479;28;20048;-96
2023/05/08 06:48:40;;;;;;;15.45;13.85;;;11.50;73.50;;;;;;4999643;28;20096;-92
2023/05/08 06:51:05;;;;;;;16.10;14.32;;;11.50;73.70;;;;;;4967331;28;20493;-92
2023/05/08 06:53:31;;;;;;;16.58;14.88;;;11.50;73.90;;;;;;4983531;28;20045;-93
2023/05/08 06:55:57;;;;;;;16.17;13.80;;;11.50;73.70;;;;;;5011883;28;20069;-92
2023/05/08 06:58:26;;;;;;;19.17;14.93;;;11.50;73.90;;;;;;5004657;28;20045;-94
2023/05/08 07:01:21;;;;;;;15.43;13.70;;;11.60;73.60;;;;;;4980570;28;20041;-95
2023/05/08 07:03:59;;;;;;;18.10;14.63;;;11.60;73.60;;;;;;5000482;28;20064;-94
2023/05/08 07:06:26;;;;;;;18.58;14.18;;;11.70;74.10;;;;;;4983069;28;20057;-94
2023/05/08 07:09:00;;;;;;;20.02;14.68;;;11.70;74.00;;;;;;4998983;28;20041;-94
2023/05/08 07:11:31;;;;;;;16.83;14.93;;;11.80;73.90;;;;;;5010121;28;20054;-94
2023/05/08 07:14:07;;;;;;;16.33;14.45;;;11.90;74.40;;;;;;4984845;28;20120;-94
2023/05/08 07:16:33;;;;;;;16.38;14.68;;;11.90;74.10;;;;;;4989504;28;20056;-95
2023/05/08 07:19:01;;;;;;;16.23;14.32;;;11.90;73.90;;;;;;4998165;28;20057;-95
2023/05/08 07:21:29;;;;;;;16.00;14.30;;;11.90;73.90;;;;;;4988854;28;20049;-94
2023/05/08 07:24:13;;;;;;;16.25;14.27;;;11.90;73.60;;;;;;4985060;28;20049;-95
2023/05/08 07:26:39;;;;;;;17.13;14.98;;;11.90;73.20;;;;;;5011104;28;20057;-94
2023/05/08 07:29:05;;;;;;;17.70;15.05;;;11.90;73.80;;;;;;5004747;28;20114;-94
2023/05/08 07:31:59;;;;;;;16.45;14.77;;;11.90;73.70;;;;;;5005160;28;20045;-93
2023/05/08 07:34:25;;;;;;;17.08;14.80;;;12.00;73.40;;;;;;5002762;28;20915;-93
2023/05/08 07:36:54;;;;;;;17.83;15.30;;;12.00;73.50;;;;;;5018338;28;20120;-96
2023/05/08 07:39:22;;;;;;;16.55;14.85;;;12.10;73.80;;;;;;5004248;28;20052;-95
2023/05/08 07:41:48;;;;;;;17.88;14.35;;;12.10;73.80;;;;;;5004943;28;20477;-93
2023/05/08 07:44:17;;;;;;;16.55;14.85;;;12.20;73.70;;;;;;5005189;28;20056;-94
2023/05/08 07:47:45;;;;;;;;;;;;;;;;;;;;;
2023/05/08 07:58:16;;;;;;;16.77;14.95;;;12.60;73.60;;;;;;5232420;22;20049;-96
2023/05/08 08:01:17;;;;;;;17.60;14.57;;;12.70;73.60;;;;;;4990847;28;20821;-94
2023/05/08 08:03:44;;;;;;;16.00;14.30;;;12.90;73.40;;;;;;4978711;28;20053;-92
2023/05/08 08:06:24;;;;;;;15.30;13.70;;;13.00;73.30;;;;;;4965551;28;20065;-94
2023/05/08 08:09:21;;;;;;;16.80;14.82;;;13.10;73.50;;;;;;4988027;28;20502;-93
2023/05/08 08:15:40;;;;;;;16.55;14.85;;;13.40;73.30;;;;;;4970779;28;20093;-94
2023/05/08 08:18:27;;;;;;;17.77;14.55;;;13.70;73.10;;;;;;4962122;28;20046;-95
2023/05/08 08:20:53;;;;;;;15.90;13.98;;;13.90;72.60;;;;;;4989028;28;20041;-92
2023/05/08 08:24:18;;;;;;;15.77;14.10;;;14.00;72.60;;;;;;4971435;28;21273;-93
2023/05/08 08:30:56;;;;;;;16.80;15.10;;;14.00;71.80;;;;;;4877005;29;20076;-94
2023/05/08 08:38:10;;;;;;;20.42;17.23;;;14.00;72.00;;;;;;4748079;30;20140;-96
2023/05/08 08:56:21;;;;;;;15.98;14.23;;;14.30;72.20;;;;;;4768073;29;20059;-94
2023/05/08 09:00:05;;;;;;;;;;;;;;;;;;;;;
2023/05/08 09:04:04;;;;;;;17.30;14.95;;;14.60;72.10;;;;;;4807481;29;20584;-95
2023/05/08 09:06:50;;;;;;;;;;;;;;;;;;;;;
2023/05/08 09:10:06;;;;;;;16.00;14.35;;;14.60;72.20;;;;;;4800612;29;20220;-95
2023/05/08 09:12:38;;;;;;;16.10;14.50;;;14.70;72.00;;;;;;4891199;28;20056;-94
2023/05/08 09:20:39;;;;;;;;;;;;;;;;;;;;;
2023/05/08 09:23:10;;;;;;;16.55;14.45;;;14.70;71.10;;;;;;4852037;28;20128;-96
2023/05/08 09:29:52;;;;;;;17.02;14.02;;;14.80;70.90;;;;;;4885436;29;20044;-93
2023/05/08 09:32:19;;;;;;;16.50;14.82;;;14.90;71.70;;;;;;4890249;29;20063;-95
2023/05/08 09:34:52;;;;;;;16.92;15.13;;;15.00;71.50;;;;;;4913751;29;20070;-94
2023/05/08 09:37:26;;;;;;;17.25;15.32;;;15.20;71.20;;;;;;4982122;28;20129;-93
2023/05/08 09:40:56;;;;;;;;;;;;;;;;;;;;;
2023/05/08 09:44:08;;;;;;;16.40;14.63;;;15.40;71.70;;;;;;4915282;29;20115;-93
2023/05/08 09:47:34;;;;;;;;;;;;;;;;;;;;;
2023/05/08 09:51:18;;;;;;;;;;;;;;;;;;;;;
2023/05/08 09:58:08;;;;;;;;;;;;;;;;;;;;;
2023/05/08 10:01:14;;;;;;;18.15;16.35;;;15.80;70.50;;;;;;4931334;29;20059;-93
2023/05/08 10:04:36;;;;;;;18.42;15.82;;;16.00;70.50;;;;;;4913526;29;20065;-94
2023/05/08 10:07:37;;;;;;;17.73;15.82;;;16.20;70.70;;;;;;4890498;28;20054;-95
2023/05/08 10:22:33;;;;;;;17.25;15.27;;;16.60;69.90;;;;;;4903918;29;20063;-95
2023/05/08 10:40:49;;;;;;;;;;;;;;;;;;;;;
2023/05/08 10:44:24;;;;;;;18.80;16.90;;;16.80;70.10;;;;;;4915666;28;20108;-94
2023/05/08 10:47:05;;;;;;;18.52;16.23;;;17.00;70.40;;;;;;4876754;29;20067;-91
2023/05/08 11:01:10;;;;;;;17.00;15.30;;;17.40;69.50;;;;;;4902596;29;20059;-95
2023/05/08 11:04:18;;;;;;;19.80;16.92;;;17.50;70.00;;;;;;4915917;28;20055;-93
2023/05/08 11:11:27;;;;;;;19.13;17.10;;;17.60;68.20;;;;;;4893691;29;20505;-93
2023/05/08 11:19:15;;;;;;;19.73;17.63;;;17.80;69.40;;;;;;4753960;29;20055;-93
2023/05/08 11:22:25;;;;;;;19.92;17.83;;;18.00;69.30;;;;;;4719944;30;20074;-93
2023/05/08 11:36:49;;;;;;;18.65;16.80;;;18.30;68.80;;;;;;4839269;29;20074;-96
2023/05/08 11:39:25;;;;;;;22.05;19.27;;;18.40;68.00;;;;;;4823899;29;20387;-93
2023/05/08 11:41:57;;;;;;;21.48;19.20;;;18.40;68.80;;;;;;4780699;29;20121;-92
2023/05/08 11:45:13;;;;;;;23.05;19.95;;;18.50;68.80;;;;;;4819992;29;20551;-96
2023/05/08 12:12:48;;;;;;;19.98;17.88;;;19.10;68.50;;;;;;5302889;22;21763896;-92
2023/05/08 12:15:37;;;;;;;20.50;17.58;;;19.20;68.40;;;;;;6133590;23;20021;-93
2023/05/08 13:29:43;;;;;;;;;;;;;;;;;;;;;
2023/05/08 15:10:14;;;;;;;19.30;17.23;;;20.10;67.30;;;;;;6060491;23;20078;-93
2023/05/08 15:13:01;;;;;;;18.42;16.02;;;20.10;67.40;;;;;;6022841;23;20030;-93
2023/05/08 15:19:54;;;;;;;;;;;;;;;;;;;;;
2023/05/08 15:23:13;;;;;;;23.27;18.50;;;20.00;67.20;;;;;;6036962;23;20022;-93
2023/05/08 15:26:07;;;;;;;20.92;16.77;;;20.00;67.30;;;;;;5952033;23;20748;-92
2023/05/08 15:29:28;;;;;;;;;;;;;;;;;;;;;
2023/05/08 15:32:36;;;;;;;19.47;17.37;;;20.00;66.60;;;;;;5975287;23;20422;-91
2023/05/08 15:38:52;;;;;;;21.92;19.27;;;20.00;66.90;;;;;;6074082;23;20490;-93
2023/05/08 15:41:50;;;;;;;21.15;18.92;;;20.00;67.30;;;;;;6125462;23;20629;-92
2023/05/08 15:44:18;;;;;;;21.60;19.30;;;20.00;67.20;;;;;;6079145;23;20506;-91
2023/05/08 15:46:49;;;;;;;33.35;29.25;;;19.90;67.30;;;;;;6118070;23;20017;-93
2023/05/08 15:49:17;;;;;;;36.50;31.98;;;19.80;68.50;;;;;;6145781;23;20043;-91
2023/05/08 15:51:43;;;;;;;38.35;34.10;;;19.50;69.30;;;;;;6211841;23;20059;-89
2023/05/08 15:54:30;;;;;;;40.65;36.35;;;19.30;70.10;;;;;;6186563;23;20075;-96
2023/05/08 15:57:08;;;;;;;45.53;38.38;;;19.10;71.30;;;;;;6162157;23;20266;-93
2023/05/08 15:59:56;;;;;;;;;;;;;;;;;;;;;
2023/05/08 16:02:51;;;;;;;52.03;41.95;;;18.70;74.20;;;;;;6209746;22;20016;-91
2023/05/08 16:05:25;;;;;;;58.38;42.65;;;18.60;73.80;;;;;;6180979;23;20017;-93
2023/05/08 16:08:32;;;;;;;52.92;43.65;;;18.70;74.50;;;;;;6177116;23;20017;-95
2023/05/08 16:10:58;;;;;;;53.17;43.72;;;18.80;75.70;;;;;;6162391;23;20048;-93
2023/05/08 16:13:57;;;;;;;;;;;;;;;;;;;;;
2023/05/08 16:17:28;;;;;;;58.33;47.95;;;19.20;75.10;;;;;;6172980;23;20013;-93
2023/05/08 16:20:12;;;;;;;56.25;47.25;;;19.30;75.70;;;;;;6035243;23;20026;-90
2023/05/08 16:23:15;;;;;;;52.75;46.20;;;19.30;75.00;;;;;;6141905;23;20047;-94
2023/05/08 16:26:10;;;;;;;58.63;47.83;;;19.30;75.00;;;;;;6016510;23;20019;-91
2023/05/08 16:32:29;;;;;;;58.95;47.47;;;19.10;75.50;;;;;;6156047;23;20055;-91
2023/05/08 16:34:57;;;;;;;55.60;46.53;;;19.00;75.40;;;;;;6149948;23;20017;-92
2023/05/08 16:37:23;;;;;;;60.95;50.22;;;19.00;75.60;;;;;;6170438;23;20032;-91
2023/05/08 16:39:52;;;;;;;59.63;51.20;;;19.10;75.90;;;;;;6174269;23;20043;-90
2023/05/08 16:42:26;;;;;;;24.58;21.98;;;19.00;76.20;;;;;;6176219;23;20801;-92
2023/05/08 16:44:52;;;;;;;18.70;16.48;;;18.80;75.20;;;;;;6174876;23;20070;-90
2023/05/08 16:47:21;;;;;;;15.70;14.30;;;18.50;74.20;;;;;;6173167;23;20477;-90
2023/05/08 16:49:47;;;;;;;15.30;13.70;;;18.30;73.80;;;;;;6182051;23;20021;-91
2023/05/08 16:52:20;;;;;;;15.45;13.50;;;18.00;73.60;;;;;;6180594;23;20051;-91
2023/05/08 16:54:49;;;;;;;15.90;14.30;;;17.80;73.40;;;;;;6181666;23;20013;-90
2023/05/08 16:57:15;;;;;;;14.70;13.20;;;17.50;73.70;;;;;;6203519;23;20059;-90
2023/05/08 16:59:44;;;;;;;14.02;12.57;;;17.30;74.00;;;;;;6163561;23;20433;-91
2023/05/08 17:02:10;;;;;;;15.35;13.85;;;17.00;74.00;;;;;;6161114;22;20025;-91
2023/05/08 17:04:43;;;;;;;20.58;15.70;;;16.80;74.30;;;;;;6138546;23;20023;-90
2023/05/08 17:07:09;;;;;;;17.63;14.00;;;16.70;74.90;;;;;;6154925;23;20027;-90
2023/05/08 17:09:35;;;;;;;21.10;16.73;;;16.60;75.10;;;;;;6137588;23;20020;-89
2023/05/08 17:12:01;;;;;;;15.77;13.95;;;16.50;75.60;;;;;;6161991;23;20436;-89
2023/05/08 17:14:26;;;;;;;20.60;15.43;;;16.40;75.50;;;;;;6160501;23;20088;-90
2023/05/08 17:16:52;;;;;;;26.00;18.63;;;16.30;75.90;;;;;;6130492;23;20013;-91
2023/05/08 17:25:13;;;;;;;24.20;19.73;;;16.00;76.80;;;;;;6190165;23;20032;-94
2023/05/08 17:28:21;;;;;;;;;;;;;;;;;;;;;
2023/05/08 17:31:13;;;;;;;21.77;17.15;;;15.80;77.10;;;;;;6165265;23;20100;-92
2023/05/08 17:33:45;;;;;;;;;;;15.80;77.40;;;;;;6084579;23;20025;-92
2023/05/08 17:36:21;;;;;;;17.52;15.75;;;15.80;78.20;;;;;;6132742;23;20292;-92
2023/05/08 17:39:24;;;;;;;17.90;16.10;;;15.80;77.50;;;;;;6123255;23;20032;-93
2023/05/08 17:44:58;;;;;;;18.73;16.00;;;15.60;77.30;;;;;;6050519;23;20029;-92
2023/05/08 17:50:45;;;;;;;;;;;;;;;;;;;;;
2023/05/08 17:53:59;;;;;;;;;;;;;;;;;;;;;
2023/05/08 17:59:37;;;;;;;18.65;16.73;;;15.60;77.80;;;;;;6087506;23;20025;-91
2023/05/08 18:02:38;;;;;;;19.70;17.65;;;15.70;78.30;;;;;;6164288;23;20134;-92
2023/05/08 18:05:15;;;;;;;22.20;18.98;;;15.60;78.30;;;;;;6180745;23;20410;-90
2023/05/08 18:07:44;;;;;;;18.52;16.63;;;15.60;78.20;;;;;;6147203;23;20078;-91
2023/05/08 18:10:27;;;;;;;19.30;17.23;;;15.60;78.30;;;;;;6179414;23;20016;-91
2023/05/08 18:13:24;;;;;;;17.33;15.63;;;15.60;78.30;;;;;;6143209;23;20019;-92
2023/05/08 18:16:26;;;;;;;20.08;16.63;;;15.60;78.30;;;;;;6168416;23;20026;-92
2023/05/08 18:19:08;;;;;;;15.82;14.23;;;15.60;78.20;;;;;;6110698;23;20025;-92
2023/05/08 18:22:16;;;;;;;18.77;15.95;;;15.60;78.00;;;;;;6127424;23;20021;-92
2023/05/08 18:24:56;;;;;;;19.17;17.17;;;15.60;77.90;;;;;;6121677;23;20120;-92
2023/05/08 18:27:47;;;;;;;20.67;18.50;;;15.60;78.00;;;;;;6103585;23;20126;-92
2023/05/08 18:30:44;;;;;;;22.25;19.55;;;15.60;78.20;;;;;;6161663;23;20017;-91
2023/05/08 18:33:48;;;;;;;;;;;;;;;;;;;;;
2023/05/08 18:36:54;;;;;;;27.48;21.70;;;15.50;78.80;;;;;;6208721;23;20017;-92
2023/05/08 18:39:25;;;;;;;24.27;20.85;;;15.40;79.10;;;;;;6162436;23;20021;-91
2023/05/08 18:42:43;;;;;;;;;;;;;;;;;;;;;
2023/05/08 18:45:26;;;;;;;18.23;16.30;;;15.30;78.70;;;;;;6084121;23;20025;-93
2023/05/08 18:47:56;;;;;;;19.83;17.73;;;15.20;78.60;;;;;;6136264;23;20051;-92
2023/05/08 18:50:51;;;;;;;18.10;16.35;;;15.20;78.50;;;;;;6176271;23;20514;-92
2023/05/08 18:53:31;;;;;;;19.63;17.13;;;15.20;78.50;;;;;;6098705;23;20021;-92
2023/05/08 19:00:32;;;;;;;;;;;;;;;;;;;;;
2023/05/08 19:03:49;;;;;;;;;;;;;;;;;;;;;
2023/05/08 19:06:31;;;;;;;;;;;;;;;;;;;;;
2023/05/08 19:23:59;;;;;;;24.65;22.08;;;14.90;78.90;;;;;;6208200;22;20024;-91
2023/05/08 19:26:34;;;;;;;24.67;22.27;;;14.90;78.90;;;;;;6158612;23;20024;-92
2023/05/08 19:29:11;;;;;;;23.70;20.58;;;14.90;78.80;;;;;;6158909;23;20581;-91
2023/05/08 19:31:37;;;;;;;24.20;21.77;;;14.90;78.80;;;;;;6215806;23;20563;-91
2023/05/08 19:34:30;;;;;;;22.48;20.27;;;14.90;78.80;;;;;;6215571;23;20066;-91
2023/05/08 19:37:13;;;;;;;21.23;19.08;;;14.90;78.70;;;;;;6191561;23;20016;-91
2023/05/08 19:39:59;;;;;;;;;;;;;;;;;;;;;
2023/05/08 19:42:46;;;;;;;;;;;;;;;;;;;;;